Terminal Aerodrome Forecast
Issued by NWS

Home | Current Version | Previous Version | Text Only | Print | Product List | Glossary On
Versions: 1 2 3 4 5 6 7 8 9 10 11 12 13 14
000
FTUS44 KMOB 111137
TAFBFM
TAF
KBFM 111137Z 1112/1212 33007KT P6SM SKC
     FM111500 08005KT P6SM SCT020
     FM111800 12008KT P6SM BKN022
     FM120300 15008KT 2SM BR OVC007
      TEMPO 1208/1212 1/4SM FG VV001=

USA.gov is the U.S. government's official web portal to all federal, state and local government web resources and services.